Pagrindinis puslapis
METAR-TAF:

METAR-TAF

Oro uostai :

Tomskas, Rusija

platuma: 56-23-12N, ilguma: 085-12-38E, Aukštis: 182 m

Dabartinis oras

Ataskaita buvo paskelbta 26 minutes, ne 13:00 UTC
Vėjas 6 kt iš Pietų/Pietvakarių
Temperatūra 14°C
Drėgmė 82%
Slėgis 1009 hPa
Matomumas 10 km arba daugiau
Mažai debesys ne aukštis 4900 ft, Liūtiniai kamuoliniai debesys.
lietus

METAR: UNTT 291300Z 20003MPS 9999 -SHRA FEW049CB 14/11 Q1009 R21/090060 NOSIG RMK QFE742

Laikas: 20:26 (13:26 UTC)

Prognozė

Ataskaita buvo paskelbta 2 valandos ir 28 minutes, ne 10:58 UTC
Prognozė galioja nuo 29 metu 12 UTC su 29 metu 21 UTC
Vėjas 14 kt iš Pietų/Pietvakarių su gūsio iki 27 kt
Matomumas 10 km arba daugiau
Išsisklaidę debesys ne aukštis 3000 ft, Liūtiniai kamuoliniai debesys.
Laikinai
nuo 29 metu 15 UTC su 29 metu 21 UTC
Matomumas: 3000 m
Išsisklaidę debesys ne aukštis 700 ft
Su prošvaistėmis ne aukštis 1600 ft, Liūtiniai kamuoliniai debesys.
lietus

TAF: UNTT 291058Z 2912/2921 20007G14MPS 9999 SCT030CB TEMPO 2915/2921 3000 -SHRA SCT007 BKN016CB

Orai ataskaitas ir orų prognozės (METAR, TAF).

turimą stotys yra geltonos ir raudonos taškus žemėlapyje.

Perkelti pele per norėdami pamatyti stoties vardą.

Tada spustelėkite, norėdami matyti oro stebėjimo ir prognozės.

Norėdami pakeisti žemėlapį: spustelėkite ant žalios mygtukų su juodo kryžiaus žemyn,; žalią mygtuką su brūkšneliu, jei norite nutolinti; arba žalių rodyklių gretimoms žemėlapius.


METAR-TAF: